Coronel Fabriciano, Brazil
Current Conditions -  °F | °C
As of 11:00 AM on Monday 22 Dec 2014 (Local Time) from SBLS Reporting Station
Broken Clouds Broken Clouds  
Wind Chill: 77°   Ceiling: 1500
Heat Index: 79°   Visibility: 6mi
Dew Point: 70°   Wind: 0mph
Humidity: 78%   Direction: NA
Pressure: 30.09"   Gusts: NA
Location:  19.53°S, 42.64°W
Report Text: SBLS 221300Z 00000KT 9999 BKN015 BKN070 25/21 Q1019
Loading
Personal Weather Stations






























Interactive Weather Map New forecast layout! Learn more

10-Day Weather Forecast

Advertisements
Track Severe Weather on mobile